sensor_id;sensor_type;location;lat;lon;timestamp;P1;durP1;ratioP1;P2;durP2;ratioP2
26654;SDS011;14278;50.784;4.630;2023-02-20T00:02:16;4.87;;;3.30;;
26654;SDS011;14278;50.784;4.630;2023-02-20T00:04:42;5.43;;;3.90;;
26654;SDS011;14278;50.784;4.630;2023-02-20T00:07:08;6.77;;;3.63;;
26654;SDS011;14278;50.784;4.630;2023-02-20T00:09:34;5.67;;;3.63;;
26654;SDS011;14278;50.784;4.630;2023-02-20T00:12:00;4.83;;;3.40;;
26654;SDS011;14278;50.784;4.630;2023-02-20T00:14:26;6.00;;;3.87;;
26654;SDS011;14278;50.784;4.630;2023-02-20T00:16:51;5.67;;;3.57;;
26654;SDS011;14278;50.784;4.630;2023-02-20T00:19:18;6.30;;;3.77;;
26654;SDS011;14278;50.784;4.630;2023-02-20T00:21:44;4.90;;;3.40;;
26654;SDS011;14278;50.784;4.630;2023-02-20T00:24:14;4.40;;;3.20;;
26654;SDS011;14278;50.784;4.630;2023-02-20T00:26:47;4.77;;;3.27;;
26654;SDS011;14278;50.784;4.630;2023-02-20T00:29:17;4.23;;;3.80;;
26654;SDS011;14278;50.784;4.630;2023-02-20T00:31:49;4.23;;;3.40;;
26654;SDS011;14278;50.784;4.630;2023-02-20T00:34:19;3.70;;;3.27;;
26654;SDS011;14278;50.784;4.630;2023-02-20T00:36:46;8.50;;;3.20;;
26654;SDS011;14278;50.784;4.630;2023-02-20T00:39:12;3.67;;;2.93;;
26654;SDS011;14278;50.784;4.630;2023-02-20T00:41:38;4.90;;;3.27;;
26654;SDS011;14278;50.784;4.630;2023-02-20T00:44:04;8.50;;;3.80;;
26654;SDS011;14278;50.784;4.630;2023-02-20T00:46:31;6.80;;;3.40;;
26654;SDS011;14278;50.784;4.630;2023-02-20T00:48:57;4.00;;;3.40;;
26654;SDS011;14278;50.784;4.630;2023-02-20T00:51:23;3.93;;;3.03;;
26654;SDS011;14278;50.784;4.630;2023-02-20T00:53:49;3.43;;;3.00;;
26654;SDS011;14278;50.784;4.630;2023-02-20T00:56:15;6.60;;;3.27;;
26654;SDS011;14278;50.784;4.630;2023-02-20T00:58:41;5.53;;;3.67;;
26654;SDS011;14278;50.784;4.630;2023-02-20T01:01:07;4.33;;;2.90;;
26654;SDS011;14278;50.784;4.630;2023-02-20T01:03:33;3.43;;;2.87;;
26654;SDS011;14278;50.784;4.630;2023-02-20T01:05:58;6.80;;;3.37;;
26654;SDS011;14278;50.784;4.630;2023-02-20T01:08:25;3.73;;;2.83;;
26654;SDS011;14278;50.784;4.630;2023-02-20T01:10:50;2.60;;;2.30;;
26654;SDS011;14278;50.784;4.630;2023-02-20T01:13:16;5.27;;;3.43;;
26654;SDS011;14278;50.784;4.630;2023-02-20T01:15:42;2.57;;;2.13;;
26654;SDS011;14278;50.784;4.630;2023-02-20T01:18:08;7.80;;;2.80;;
26654;SDS011;14278;50.784;4.630;2023-02-20T01:20:34;4.43;;;2.57;;
26654;SDS011;14278;50.784;4.630;2023-02-20T01:23:00;3.50;;;2.77;;
26654;SDS011;14278;50.784;4.630;2023-02-20T01:25:27;4.17;;;3.03;;
26654;SDS011;14278;50.784;4.630;2023-02-20T01:27:53;4.67;;;2.97;;
26654;SDS011;14278;50.784;4.630;2023-02-20T01:30:19;4.17;;;2.97;;
26654;SDS011;14278;50.784;4.630;2023-02-20T01:32:45;6.23;;;3.37;;
26654;SDS011;14278;50.784;4.630;2023-02-20T01:35:11;3.63;;;2.57;;
26654;SDS011;14278;50.784;4.630;2023-02-20T01:37:37;6.67;;;2.63;;
26654;SDS011;14278;50.784;4.630;2023-02-20T01:40:03;3.63;;;2.20;;
26654;SDS011;14278;50.784;4.630;2023-02-20T01:42:30;10.83;;;3.47;;
26654;SDS011;14278;50.784;4.630;2023-02-20T01:45:13;4.20;;;2.63;;
26654;SDS011;14278;50.784;4.630;2023-02-20T01:47:43;3.47;;;3.13;;
26654;SDS011;14278;50.784;4.630;2023-02-20T01:50:09;3.77;;;3.23;;
26654;SDS011;14278;50.784;4.630;2023-02-20T01:52:36;3.90;;;2.93;;
26654;SDS011;14278;50.784;4.630;2023-02-20T01:55:15;3.30;;;2.80;;
26654;SDS011;14278;50.784;4.630;2023-02-20T01:57:47;3.73;;;3.43;;
26654;SDS011;14278;50.784;4.630;2023-02-20T02:00:21;7.20;;;4.40;;
26654;SDS011;14278;50.784;4.630;2023-02-20T02:05:46;4.30;;;3.50;;
26654;SDS011;14278;50.784;4.630;2023-02-20T02:08:17;3.93;;;3.27;;
26654;SDS011;14278;50.784;4.630;2023-02-20T02:10:53;5.33;;;3.70;;
26654;SDS011;14278;50.784;4.630;2023-02-20T02:13:29;4.90;;;3.90;;
26654;SDS011;14278;50.784;4.630;2023-02-20T02:16:10;5.23;;;3.70;;
26654;SDS011;14278;50.784;4.630;2023-02-20T02:38:24;5.90;;;3.20;;
26654;SDS011;14278;50.784;4.630;2023-02-20T02:43:47;6.00;;;4.13;;
26654;SDS011;14278;50.784;4.630;2023-02-20T02:46:40;5.03;;;3.50;;
26654;SDS011;14278;50.784;4.630;2023-02-20T02:51:43;7.80;;;3.90;;
26654;SDS011;14278;50.784;4.630;2023-02-20T02:54:16;4.97;;;4.17;;
26654;SDS011;14278;50.784;4.630;2023-02-20T02:56:45;5.00;;;3.47;;
26654;SDS011;14278;50.784;4.630;2023-02-20T02:59:20;7.90;;;4.17;;
26654;SDS011;14278;50.784;4.630;2023-02-20T03:01:53;7.83;;;4.17;;
26654;SDS011;14278;50.784;4.630;2023-02-20T03:04:22;4.37;;;3.53;;
26654;SDS011;14278;50.784;4.630;2023-02-20T03:06:56;5.23;;;4.17;;
26654;SDS011;14278;50.784;4.630;2023-02-20T03:09:31;8.57;;;4.47;;
26654;SDS011;14278;50.784;4.630;2023-02-20T03:12:00;4.07;;;3.40;;
26654;SDS011;14278;50.784;4.630;2023-02-20T03:14:32;3.53;;;3.13;;
26654;SDS011;14278;50.784;4.630;2023-02-20T03:19:56;6.37;;;4.40;;
26654;SDS011;14278;50.784;4.630;2023-02-20T03:25:30;5.43;;;3.43;;
26654;SDS011;14278;50.784;4.630;2023-02-20T03:28:04;7.70;;;3.90;;
26654;SDS011;14278;50.784;4.630;2023-02-20T03:30:45;7.60;;;3.47;;
26654;SDS011;14278;50.784;4.630;2023-02-20T03:33:46;10.80;;;4.00;;
26654;SDS011;14278;50.784;4.630;2023-02-20T03:36:40;6.47;;;4.17;;
26654;SDS011;14278;50.784;4.630;2023-02-20T03:39:32;10.80;;;4.00;;
26654;SDS011;14278;50.784;4.630;2023-02-20T03:42:22;3.70;;;3.30;;
26654;SDS011;14278;50.784;4.630;2023-02-20T03:45:08;7.40;;;4.07;;
26654;SDS011;14278;50.784;4.630;2023-02-20T03:47:36;5.70;;;3.50;;
26654;SDS011;14278;50.784;4.630;2023-02-20T03:50:07;7.83;;;4.70;;
26654;SDS011;14278;50.784;4.630;2023-02-20T03:52:36;5.13;;;3.10;;
26654;SDS011;14278;50.784;4.630;2023-02-20T03:55:02;4.17;;;3.63;;
26654;SDS011;14278;50.784;4.630;2023-02-20T03:57:30;4.80;;;3.83;;
26654;SDS011;14278;50.784;4.630;2023-02-20T04:00:06;8.40;;;4.80;;
26654;SDS011;14278;50.784;4.630;2023-02-20T04:02:39;9.50;;;4.67;;
26654;SDS011;14278;50.784;4.630;2023-02-20T04:05:15;5.07;;;3.70;;
26654;SDS011;14278;50.784;4.630;2023-02-20T04:08:00;5.30;;;4.77;;
26654;SDS011;14278;50.784;4.630;2023-02-20T04:10:36;4.43;;;4.03;;
26654;SDS011;14278;50.784;4.630;2023-02-20T04:13:06;7.40;;;4.47;;
26654;SDS011;14278;50.784;4.630;2023-02-20T04:15:33;6.60;;;3.87;;
26654;SDS011;14278;50.784;4.630;2023-02-20T04:18:20;6.67;;;4.57;;
26654;SDS011;14278;50.784;4.630;2023-02-20T04:20:47;6.10;;;4.67;;
26654;SDS011;14278;50.784;4.630;2023-02-20T04:23:18;5.47;;;3.80;;
26654;SDS011;14278;50.784;4.630;2023-02-20T04:26:08;5.20;;;3.40;;
26654;SDS011;14278;50.784;4.630;2023-02-20T04:28:40;7.73;;;3.80;;
26654;SDS011;14278;50.784;4.630;2023-02-20T04:31:06;3.77;;;3.43;;
26654;SDS011;14278;50.784;4.630;2023-02-20T04:33:33;5.83;;;3.93;;
26654;SDS011;14278;50.784;4.630;2023-02-20T04:35:59;6.93;;;4.13;;
26654;SDS011;14278;50.784;4.630;2023-02-20T04:38:26;7.53;;;3.60;;
26654;SDS011;14278;50.784;4.630;2023-02-20T04:40:52;5.53;;;4.40;;
26654;SDS011;14278;50.784;4.630;2023-02-20T04:43:18;6.17;;;4.50;;
26654;SDS011;14278;50.784;4.630;2023-02-20T04:45:44;6.40;;;3.87;;
26654;SDS011;14278;50.784;4.630;2023-02-20T04:48:09;11.83;;;5.53;;
26654;SDS011;14278;50.784;4.630;2023-02-20T04:50:36;7.10;;;4.07;;
26654;SDS011;14278;50.784;4.630;2023-02-20T04:53:02;6.03;;;4.70;;
26654;SDS011;14278;50.784;4.630;2023-02-20T04:55:28;5.57;;;4.43;;
26654;SDS011;14278;50.784;4.630;2023-02-20T04:57:54;9.47;;;5.07;;
26654;SDS011;14278;50.784;4.630;2023-02-20T05:00:22;10.53;;;4.70;;
26654;SDS011;14278;50.784;4.630;2023-02-20T05:02:50;6.63;;;5.07;;
26654;SDS011;14278;50.784;4.630;2023-02-20T05:07:42;7.10;;;6.20;;
26654;SDS011;14278;50.784;4.630;2023-02-20T05:10:11;10.17;;;5.80;;
26654;SDS011;14278;50.784;4.630;2023-02-20T05:12:38;6.67;;;4.70;;
26654;SDS011;14278;50.784;4.630;2023-02-20T05:15:04;8.43;;;4.77;;
26654;SDS011;14278;50.784;4.630;2023-02-20T05:17:31;13.50;;;4.97;;
26654;SDS011;14278;50.784;4.630;2023-02-20T05:19:57;19.97;;;5.43;;
26654;SDS011;14278;50.784;4.630;2023-02-20T05:22:22;7.13;;;5.23;;
26654;SDS011;14278;50.784;4.630;2023-02-20T05:24:49;10.17;;;5.80;;
26654;SDS011;14278;50.784;4.630;2023-02-20T05:27:16;6.80;;;5.10;;
26654;SDS011;14278;50.784;4.630;2023-02-20T05:29:48;6.97;;;4.87;;
26654;SDS011;14278;50.784;4.630;2023-02-20T05:32:16;7.23;;;5.30;;
26654;SDS011;14278;50.784;4.630;2023-02-20T05:34:43;6.37;;;5.20;;
26654;SDS011;14278;50.784;4.630;2023-02-20T05:37:10;7.87;;;5.33;;
26654;SDS011;14278;50.784;4.630;2023-02-20T05:39:37;9.57;;;5.67;;
26654;SDS011;14278;50.784;4.630;2023-02-20T05:42:04;6.70;;;4.60;;
26654;SDS011;14278;50.784;4.630;2023-02-20T05:44:30;6.47;;;5.27;;
26654;SDS011;14278;50.784;4.630;2023-02-20T05:46:56;11.90;;;4.97;;
26654;SDS011;14278;50.784;4.630;2023-02-20T05:49:24;11.73;;;5.27;;
26654;SDS011;14278;50.784;4.630;2023-02-20T05:51:51;6.97;;;5.27;;
26654;SDS011;14278;50.784;4.630;2023-02-20T05:54:20;13.47;;;6.80;;
26654;SDS011;14278;50.784;4.630;2023-02-20T05:56:46;6.00;;;5.13;;
26654;SDS011;14278;50.784;4.630;2023-02-20T05:59:13;10.70;;;6.53;;
26654;SDS011;14278;50.784;4.630;2023-02-20T06:01:41;9.90;;;5.97;;
26654;SDS011;14278;50.784;4.630;2023-02-20T06:04:07;15.30;;;6.07;;
26654;SDS011;14278;50.784;4.630;2023-02-20T06:06:34;11.43;;;6.17;;
26654;SDS011;14278;50.784;4.630;2023-02-20T06:09:02;7.53;;;5.47;;
26654;SDS011;14278;50.784;4.630;2023-02-20T06:11:32;4.50;;;4.10;;
26654;SDS011;14278;50.784;4.630;2023-02-20T06:13:58;16.57;;;5.67;;
26654;SDS011;14278;50.784;4.630;2023-02-20T06:16:26;7.80;;;4.67;;
26654;SDS011;14278;50.784;4.630;2023-02-20T06:18:53;7.27;;;5.27;;
26654;SDS011;14278;50.784;4.630;2023-02-20T06:21:20;8.57;;;6.23;;
26654;SDS011;14278;50.784;4.630;2023-02-20T06:23:47;8.93;;;6.00;;
26654;SDS011;14278;50.784;4.630;2023-02-20T06:26:14;11.27;;;8.13;;
26654;SDS011;14278;50.784;4.630;2023-02-20T06:28:41;9.63;;;5.33;;
26654;SDS011;14278;50.784;4.630;2023-02-20T06:31:08;12.57;;;6.27;;
26654;SDS011;14278;50.784;4.630;2023-02-20T06:33:34;11.03;;;6.10;;
26654;SDS011;14278;50.784;4.630;2023-02-20T06:36:01;7.63;;;5.07;;
26654;SDS011;14278;50.784;4.630;2023-02-20T06:38:27;9.13;;;4.33;;
26654;SDS011;14278;50.784;4.630;2023-02-20T06:40:54;7.50;;;4.33;;
26654;SDS011;14278;50.784;4.630;2023-02-20T06:43:20;5.60;;;3.80;;
26654;SDS011;14278;50.784;4.630;2023-02-20T06:45:46;4.70;;;3.60;;
26654;SDS011;14278;50.784;4.630;2023-02-20T06:48:12;6.47;;;4.97;;
26654;SDS011;14278;50.784;4.630;2023-02-20T06:50:39;5.50;;;4.30;;
26654;SDS011;14278;50.784;4.630;2023-02-20T06:53:06;6.93;;;4.03;;
26654;SDS011;14278;50.784;4.630;2023-02-20T06:55:33;2.93;;;2.63;;
26654;SDS011;14278;50.784;4.630;2023-02-20T06:57:59;5.07;;;3.50;;
26654;SDS011;14278;50.784;4.630;2023-02-20T07:00:25;6.57;;;4.33;;
26654;SDS011;14278;50.784;4.630;2023-02-20T07:02:51;4.43;;;2.60;;
26654;SDS011;14278;50.784;4.630;2023-02-20T07:05:18;5.53;;;2.73;;
26654;SDS011;14278;50.784;4.630;2023-02-20T07:07:44;9.80;;;3.10;;
26654;SDS011;14278;50.784;4.630;2023-02-20T07:10:10;6.40;;;3.50;;
26654;SDS011;14278;50.784;4.630;2023-02-20T07:12:36;3.27;;;2.80;;
26654;SDS011;14278;50.784;4.630;2023-02-20T07:15:03;3.10;;;2.40;;
26654;SDS011;14278;50.784;4.630;2023-02-20T07:17:30;4.60;;;3.13;;
26654;SDS011;14278;50.784;4.630;2023-02-20T07:19:57;8.57;;;3.23;;
26654;SDS011;14278;50.784;4.630;2023-02-20T07:22:23;2.47;;;2.13;;
26654;SDS011;14278;50.784;4.630;2023-02-20T07:24:52;3.70;;;2.73;;
26654;SDS011;14278;50.784;4.630;2023-02-20T07:27:18;2.93;;;2.67;;
26654;SDS011;14278;50.784;4.630;2023-02-20T07:29:46;2.73;;;2.50;;
26654;SDS011;14278;50.784;4.630;2023-02-20T07:32:13;4.07;;;2.80;;
26654;SDS011;14278;50.784;4.630;2023-02-20T07:34:40;2.93;;;2.40;;
26654;SDS011;14278;50.784;4.630;2023-02-20T07:37:06;2.63;;;2.30;;
26654;SDS011;14278;50.784;4.630;2023-02-20T07:39:32;3.17;;;2.60;;
26654;SDS011;14278;50.784;4.630;2023-02-20T07:41:59;3.87;;;3.13;;
26654;SDS011;14278;50.784;4.630;2023-02-20T07:44:25;3.30;;;2.67;;
26654;SDS011;14278;50.784;4.630;2023-02-20T07:46:51;5.03;;;2.43;;
26654;SDS011;14278;50.784;4.630;2023-02-20T07:49:16;2.13;;;1.97;;
26654;SDS011;14278;50.784;4.630;2023-02-20T07:51:42;3.20;;;2.50;;
26654;SDS011;14278;50.784;4.630;2023-02-20T07:54:09;2.30;;;2.10;;
26654;SDS011;14278;50.784;4.630;2023-02-20T07:56:35;2.47;;;2.27;;
26654;SDS011;14278;50.784;4.630;2023-02-20T07:59:01;3.57;;;2.63;;
26654;SDS011;14278;50.784;4.630;2023-02-20T08:01:27;3.53;;;2.80;;
26654;SDS011;14278;50.784;4.630;2023-02-20T08:03:53;2.77;;;2.43;;
26654;SDS011;14278;50.784;4.630;2023-02-20T08:06:20;3.00;;;2.07;;
26654;SDS011;14278;50.784;4.630;2023-02-20T08:08:46;4.00;;;1.63;;
26654;SDS011;14278;50.784;4.630;2023-02-20T08:11:14;4.53;;;2.50;;
26654;SDS011;14278;50.784;4.630;2023-02-20T08:13:41;4.23;;;2.20;;
26654;SDS011;14278;50.784;4.630;2023-02-20T08:16:08;5.53;;;2.60;;
26654;SDS011;14278;50.784;4.630;2023-02-20T08:18:34;5.27;;;2.47;;
26654;SDS011;14278;50.784;4.630;2023-02-20T08:21:00;3.53;;;1.93;;
26654;SDS011;14278;50.784;4.630;2023-02-20T08:23:26;3.53;;;2.63;;
26654;SDS011;14278;50.784;4.630;2023-02-20T08:25:52;2.57;;;2.33;;
26654;SDS011;14278;50.784;4.630;2023-02-20T08:28:19;1.97;;;1.70;;
26654;SDS011;14278;50.784;4.630;2023-02-20T08:30:45;3.67;;;2.67;;
26654;SDS011;14278;50.784;4.630;2023-02-20T08:33:12;2.40;;;2.13;;
26654;SDS011;14278;50.784;4.630;2023-02-20T08:35:39;10.20;;;2.30;;
26654;SDS011;14278;50.784;4.630;2023-02-20T08:38:06;2.73;;;2.03;;
26654;SDS011;14278;50.784;4.630;2023-02-20T08:40:46;3.97;;;1.97;;
26654;SDS011;14278;50.784;4.630;2023-02-20T08:43:12;9.17;;;2.90;;
26654;SDS011;14278;50.784;4.630;2023-02-20T08:45:38;2.43;;;1.80;;
26654;SDS011;14278;50.784;4.630;2023-02-20T08:48:04;4.07;;;2.53;;
26654;SDS011;14278;50.784;4.630;2023-02-20T08:50:30;2.73;;;2.40;;
26654;SDS011;14278;50.784;4.630;2023-02-20T08:52:56;5.17;;;3.50;;
26654;SDS011;14278;50.784;4.630;2023-02-20T08:55:24;3.10;;;2.40;;
26654;SDS011;14278;50.784;4.630;2023-02-20T08:57:50;7.27;;;2.60;;
26654;SDS011;14278;50.784;4.630;2023-02-20T09:00:17;2.57;;;2.33;;
26654;SDS011;14278;50.784;4.630;2023-02-20T09:02:43;3.00;;;1.97;;
26654;SDS011;14278;50.784;4.630;2023-02-20T09:05:11;5.63;;;3.47;;
26654;SDS011;14278;50.784;4.630;2023-02-20T09:07:38;6.27;;;2.50;;
26654;SDS011;14278;50.784;4.630;2023-02-20T09:10:05;5.03;;;2.50;;
26654;SDS011;14278;50.784;4.630;2023-02-20T09:12:31;3.43;;;2.47;;
26654;SDS011;14278;50.784;4.630;2023-02-20T09:14:57;2.53;;;2.13;;
26654;SDS011;14278;50.784;4.630;2023-02-20T09:17:26;2.40;;;2.20;;
26654;SDS011;14278;50.784;4.630;2023-02-20T09:19:53;2.30;;;1.97;;
26654;SDS011;14278;50.784;4.630;2023-02-20T09:22:23;1.77;;;1.67;;
26654;SDS011;14278;50.784;4.630;2023-02-20T09:24:50;2.43;;;2.17;;
26654;SDS011;14278;50.784;4.630;2023-02-20T09:27:16;3.80;;;2.93;;
26654;SDS011;14278;50.784;4.630;2023-02-20T09:29:42;3.17;;;2.53;;
26654;SDS011;14278;50.784;4.630;2023-02-20T09:32:09;5.30;;;2.50;;
26654;SDS011;14278;50.784;4.630;2023-02-20T09:34:36;7.27;;;3.00;;
26654;SDS011;14278;50.784;4.630;2023-02-20T09:37:02;2.77;;;2.37;;
26654;SDS011;14278;50.784;4.630;2023-02-20T09:39:28;2.57;;;2.17;;
26654;SDS011;14278;50.784;4.630;2023-02-20T09:42:06;2.93;;;2.57;;
26654;SDS011;14278;50.784;4.630;2023-02-20T09:44:58;3.13;;;2.43;;
26654;SDS011;14278;50.784;4.630;2023-02-20T09:47:33;3.90;;;2.40;;
26654;SDS011;14278;50.784;4.630;2023-02-20T09:50:32;5.33;;;3.47;;
26654;SDS011;14278;50.784;4.630;2023-02-20T09:53:11;5.53;;;2.80;;
26654;SDS011;14278;50.784;4.630;2023-02-20T09:55:45;4.37;;;3.20;;
26654;SDS011;14278;50.784;4.630;2023-02-20T09:58:25;4.60;;;2.90;;
26654;SDS011;14278;50.784;4.630;2023-02-20T10:01:04;4.10;;;2.63;;
26654;SDS011;14278;50.784;4.630;2023-02-20T10:03:34;2.53;;;2.33;;
26654;SDS011;14278;50.784;4.630;2023-02-20T10:06:23;3.33;;;2.20;;
26654;SDS011;14278;50.784;4.630;2023-02-20T10:08:55;4.43;;;3.00;;
26654;SDS011;14278;50.784;4.630;2023-02-20T10:20:19;3.40;;;2.73;;
26654;SDS011;14278;50.784;4.630;2023-02-20T10:22:52;5.13;;;2.23;;
26654;SDS011;14278;50.784;4.630;2023-02-20T10:30:49;4.50;;;3.03;;
26654;SDS011;14278;50.784;4.630;2023-02-20T10:33:44;3.67;;;2.73;;
26654;SDS011;14278;50.784;4.630;2023-02-20T10:36:25;2.73;;;2.40;;
26654;SDS011;14278;50.784;4.630;2023-02-20T10:39:16;5.33;;;2.77;;
26654;SDS011;14278;50.784;4.630;2023-02-20T10:41:46;10.13;;;2.40;;
26654;SDS011;14278;50.784;4.630;2023-02-20T10:44:29;2.53;;;2.33;;
26654;SDS011;14278;50.784;4.630;2023-02-20T10:52:23;7.77;;;3.43;;
26654;SDS011;14278;50.784;4.630;2023-02-20T10:54:54;2.73;;;2.00;;
26654;SDS011;14278;50.784;4.630;2023-02-20T10:57:31;7.30;;;2.83;;
26654;SDS011;14278;50.784;4.630;2023-02-20T11:00:08;3.37;;;2.13;;
26654;SDS011;14278;50.784;4.630;2023-02-20T11:02:40;7.13;;;2.73;;
26654;SDS011;14278;50.784;4.630;2023-02-20T11:05:12;2.30;;;2.10;;
26654;SDS011;14278;50.784;4.630;2023-02-20T11:07:42;6.23;;;3.00;;
26654;SDS011;14278;50.784;4.630;2023-02-20T11:10:08;2.50;;;1.90;;
26654;SDS011;14278;50.784;4.630;2023-02-20T11:15:20;2.63;;;2.43;;
26654;SDS011;14278;50.784;4.630;2023-02-20T11:17:50;4.33;;;2.67;;
26654;SDS011;14278;50.784;4.630;2023-02-20T11:23:06;3.30;;;2.63;;
26654;SDS011;14278;50.784;4.630;2023-02-20T11:25:35;3.40;;;2.47;;
26654;SDS011;14278;50.784;4.630;2023-02-20T11:28:20;2.87;;;2.23;;
26654;SDS011;14278;50.784;4.630;2023-02-20T11:30:48;2.77;;;2.10;;
26654;SDS011;14278;50.784;4.630;2023-02-20T11:33:25;5.47;;;2.07;;
26654;SDS011;14278;50.784;4.630;2023-02-20T11:35:55;4.33;;;2.57;;
26654;SDS011;14278;50.784;4.630;2023-02-20T11:43:31;9.63;;;2.97;;
26654;SDS011;14278;50.784;4.630;2023-02-20T11:46:06;3.07;;;2.60;;
26654;SDS011;14278;50.784;4.630;2023-02-20T11:48:33;2.87;;;2.30;;
26654;SDS011;14278;50.784;4.630;2023-02-20T11:50:59;3.47;;;2.43;;
26654;SDS011;14278;50.784;4.630;2023-02-20T11:53:28;2.27;;;2.07;;
26654;SDS011;14278;50.784;4.630;2023-02-20T11:56:07;6.20;;;2.63;;
26654;SDS011;14278;50.784;4.630;2023-02-20T11:58:38;3.40;;;2.40;;
26654;SDS011;14278;50.784;4.630;2023-02-20T12:01:06;4.93;;;3.03;;
26654;SDS011;14278;50.784;4.630;2023-02-20T12:03:55;3.03;;;2.63;;
26654;SDS011;14278;50.784;4.630;2023-02-20T12:08:58;3.10;;;2.40;;
26654;SDS011;14278;50.784;4.630;2023-02-20T12:11:26;2.60;;;2.40;;
26654;SDS011;14278;50.784;4.630;2023-02-20T12:13:55;5.63;;;2.77;;
26654;SDS011;14278;50.784;4.630;2023-02-20T12:30:45;7.43;;;2.30;;
26654;SDS011;14278;50.784;4.630;2023-02-20T12:36:09;7.97;;;2.93;;
26654;SDS011;14278;50.784;4.630;2023-02-20T12:38:58;3.10;;;2.07;;
26654;SDS011;14278;50.784;4.630;2023-02-20T12:42:00;2.80;;;2.60;;
26654;SDS011;14278;50.784;4.630;2023-02-20T12:44:37;4.53;;;2.70;;
26654;SDS011;14278;50.784;4.630;2023-02-20T12:47:26;3.50;;;2.73;;
26654;SDS011;14278;50.784;4.630;2023-02-20T12:58:29;2.50;;;2.30;;
26654;SDS011;14278;50.784;4.630;2023-02-20T13:01:12;3.43;;;2.37;;
26654;SDS011;14278;50.784;4.630;2023-02-20T13:03:46;2.90;;;2.07;;
26654;SDS011;14278;50.784;4.630;2023-02-20T13:06:42;2.90;;;2.10;;
26654;SDS011;14278;50.784;4.630;2023-02-20T13:09:27;1.73;;;1.53;;
26654;SDS011;14278;50.784;4.630;2023-02-20T13:12:09;2.87;;;1.90;;
26654;SDS011;14278;50.784;4.630;2023-02-20T13:14:49;2.03;;;1.53;;
26654;SDS011;14278;50.784;4.630;2023-02-20T13:20:16;2.70;;;1.87;;
26654;SDS011;14278;50.784;4.630;2023-02-20T13:23:03;2.07;;;1.87;;
26654;SDS011;14278;50.784;4.630;2023-02-20T13:27:59;2.47;;;2.23;;
26654;SDS011;14278;50.784;4.630;2023-02-20T13:30:29;3.60;;;2.23;;
26654;SDS011;14278;50.784;4.630;2023-02-20T13:33:17;5.00;;;1.73;;
26654;SDS011;14278;50.784;4.630;2023-02-20T13:38:18;1.43;;;1.33;;
26654;SDS011;14278;50.784;4.630;2023-02-20T13:56:54;6.03;;;1.90;;
26654;SDS011;14278;50.784;4.630;2023-02-20T13:59:03;1.80;;;1.70;;
26654;SDS011;14278;50.784;4.630;2023-02-20T14:04:26;3.00;;;1.97;;
26654;SDS011;14278;50.784;4.630;2023-02-20T14:06:52;4.07;;;1.43;;
26654;SDS011;14278;50.784;4.630;2023-02-20T14:09:22;2.77;;;1.90;;
26654;SDS011;14278;50.784;4.630;2023-02-20T14:11:52;3.07;;;2.03;;
26654;SDS011;14278;50.784;4.630;2023-02-20T14:17:15;3.10;;;2.10;;
26654;SDS011;14278;50.784;4.630;2023-02-20T14:19:45;4.00;;;1.83;;
26654;SDS011;14278;50.784;4.630;2023-02-20T14:24:45;2.10;;;1.87;;
26654;SDS011;14278;50.784;4.630;2023-02-20T14:27:25;1.77;;;1.67;;
26654;SDS011;14278;50.784;4.630;2023-02-20T14:30:15;1.97;;;1.60;;
26654;SDS011;14278;50.784;4.630;2023-02-20T14:32:47;1.90;;;1.70;;
26654;SDS011;14278;50.784;4.630;2023-02-20T14:38:35;4.73;;;1.80;;
26654;SDS011;14278;50.784;4.630;2023-02-20T14:41:25;5.37;;;2.00;;
26654;SDS011;14278;50.784;4.630;2023-02-20T14:43:57;4.10;;;2.23;;
26654;SDS011;14278;50.784;4.630;2023-02-20T14:46:28;1.77;;;1.53;;
26654;SDS011;14278;50.784;4.630;2023-02-20T14:49:29;2.63;;;1.53;;
26654;SDS011;14278;50.784;4.630;2023-02-20T14:51:49;5.60;;;1.97;;
26654;SDS011;14278;50.784;4.630;2023-02-20T14:54:19;2.73;;;2.10;;
26654;SDS011;14278;50.784;4.630;2023-02-20T14:56:50;2.47;;;2.20;;
26654;SDS011;14278;50.784;4.630;2023-02-20T15:01:57;2.17;;;1.87;;
26654;SDS011;14278;50.784;4.630;2023-02-20T15:04:27;3.10;;;1.80;;
26654;SDS011;14278;50.784;4.630;2023-02-20T15:07:03;2.70;;;1.60;;
26654;SDS011;14278;50.784;4.630;2023-02-20T15:09:37;2.17;;;1.97;;
26654;SDS011;14278;50.784;4.630;2023-02-20T15:14:59;2.13;;;1.93;;
26654;SDS011;14278;50.784;4.630;2023-02-20T15:17:31;2.80;;;2.03;;
26654;SDS011;14278;50.784;4.630;2023-02-20T15:19:59;3.80;;;2.67;;
26654;SDS011;14278;50.784;4.630;2023-02-20T15:22:34;2.43;;;1.63;;
26654;SDS011;14278;50.784;4.630;2023-02-20T15:25:19;2.10;;;2.00;;
26654;SDS011;14278;50.784;4.630;2023-02-20T15:28:09;5.13;;;2.10;;
26654;SDS011;14278;50.784;4.630;2023-02-20T15:33:28;3.30;;;2.10;;
26654;SDS011;14278;50.784;4.630;2023-02-20T15:35:57;3.63;;;2.67;;
26654;SDS011;14278;50.784;4.630;2023-02-20T15:38:30;2.23;;;1.73;;
26654;SDS011;14278;50.784;4.630;2023-02-20T15:41:09;2.63;;;2.40;;
26654;SDS011;14278;50.784;4.630;2023-02-20T15:43:36;1.97;;;1.87;;
26654;SDS011;14278;50.784;4.630;2023-02-20T15:46:02;5.13;;;2.67;;
26654;SDS011;14278;50.784;4.630;2023-02-20T15:48:27;3.93;;;2.40;;
26654;SDS011;14278;50.784;4.630;2023-02-20T15:50:54;3.17;;;2.47;;
26654;SDS011;14278;50.784;4.630;2023-02-20T15:53:21;3.20;;;2.23;;
26654;SDS011;14278;50.784;4.630;2023-02-20T15:55:53;2.43;;;2.07;;
26654;SDS011;14278;50.784;4.630;2023-02-20T16:00:52;2.50;;;2.30;;
26654;SDS011;14278;50.784;4.630;2023-02-20T16:03:28;2.10;;;1.90;;
26654;SDS011;14278;50.784;4.630;2023-02-20T16:05:56;2.07;;;1.80;;
26654;SDS011;14278;50.784;4.630;2023-02-20T16:08:23;3.50;;;2.57;;
26654;SDS011;14278;50.784;4.630;2023-02-20T16:10:49;2.67;;;2.27;;
26654;SDS011;14278;50.784;4.630;2023-02-20T16:13:29;3.97;;;2.27;;
26654;SDS011;14278;50.784;4.630;2023-02-20T16:15:59;2.77;;;2.17;;
26654;SDS011;14278;50.784;4.630;2023-02-20T16:18:37;2.40;;;1.90;;
26654;SDS011;14278;50.784;4.630;2023-02-20T16:21:03;5.93;;;2.53;;
26654;SDS011;14278;50.784;4.630;2023-02-20T16:23:29;4.87;;;3.77;;
26654;SDS011;14278;50.784;4.630;2023-02-20T16:25:57;2.97;;;2.70;;
26654;SDS011;14278;50.784;4.630;2023-02-20T16:28:24;3.50;;;3.20;;
26654;SDS011;14278;50.784;4.630;2023-02-20T16:30:50;3.37;;;2.13;;
26654;SDS011;14278;50.784;4.630;2023-02-20T16:33:18;2.87;;;2.27;;
26654;SDS011;14278;50.784;4.630;2023-02-20T16:35:46;3.30;;;3.00;;
26654;SDS011;14278;50.784;4.630;2023-02-20T16:38:14;6.73;;;4.37;;
26654;SDS011;14278;50.784;4.630;2023-02-20T16:40:41;3.50;;;2.70;;
26654;SDS011;14278;50.784;4.630;2023-02-20T16:43:11;3.37;;;2.77;;
26654;SDS011;14278;50.784;4.630;2023-02-20T16:45:38;3.97;;;2.30;;
26654;SDS011;14278;50.784;4.630;2023-02-20T16:48:09;3.07;;;2.53;;
26654;SDS011;14278;50.784;4.630;2023-02-20T16:50:39;2.60;;;2.40;;
26654;SDS011;14278;50.784;4.630;2023-02-20T16:53:08;5.63;;;3.30;;
26654;SDS011;14278;50.784;4.630;2023-02-20T16:55:37;4.53;;;4.10;;
26654;SDS011;14278;50.784;4.630;2023-02-20T16:58:06;3.73;;;3.13;;
26654;SDS011;14278;50.784;4.630;2023-02-20T17:00:34;8.20;;;4.47;;
26654;SDS011;14278;50.784;4.630;2023-02-20T17:03:04;5.60;;;4.13;;
26654;SDS011;14278;50.784;4.630;2023-02-20T17:05:31;6.83;;;5.13;;
26654;SDS011;14278;50.784;4.630;2023-02-20T17:07:59;6.27;;;3.40;;
26654;SDS011;14278;50.784;4.630;2023-02-20T17:10:26;3.40;;;3.10;;
26654;SDS011;14278;50.784;4.630;2023-02-20T17:12:53;3.93;;;3.03;;
26654;SDS011;14278;50.784;4.630;2023-02-20T17:15:20;4.07;;;3.63;;
26654;SDS011;14278;50.784;4.630;2023-02-20T17:17:47;2.73;;;2.47;;
26654;SDS011;14278;50.784;4.630;2023-02-20T17:20:15;3.00;;;2.70;;
26654;SDS011;14278;50.784;4.630;2023-02-20T17:22:46;3.13;;;2.60;;
26654;SDS011;14278;50.784;4.630;2023-02-20T17:25:15;8.33;;;3.70;;
26654;SDS011;14278;50.784;4.630;2023-02-20T17:27:43;4.77;;;3.27;;
26654;SDS011;14278;50.784;4.630;2023-02-20T17:30:09;4.67;;;3.33;;